Time;durP1;ratioP1;P1;durP2;ratioP2;P2;SDS_P1;SDS_P2;PMS_P1;PMS_P2;Temp;Humidity;BMP_temperature;BMP_pressure;BME280_temperature;BME280_humidity;BME280_pressure;Samples;Min_cycle;Max_cycle;Signal;HPM_P1;HPM_P2
2023/06/09 08:29:18;;;;;;;8.50;4.70;;;;;;;24.35;64.84;97773.86;106149;1291;599704;-87
2023/06/09 08:31:48;;;;;;;16.90;4.70;;;;;;;24.34;64.79;97775.08;108467;1266;58919;-87
2023/06/09 08:34:17;;;;;;;17.40;5.50;;;;;;;24.35;64.70;97774.91;108618;1265;59916;-85
2023/06/09 08:36:48;;;;;;;18.40;6.60;;;;;;;24.36;64.50;97774.16;108945;1259;70757;-93
2023/06/09 08:39:18;;;;;;;22.90;7.20;;;;;;;24.38;64.43;97770.15;107958;1259;67460;-88
2023/06/09 08:41:57;;;;;;;22.90;7.20;;;;;;;24.38;64.47;97766.27;100302;1266;10203943;-91
2023/06/09 08:44:27;;;;;;;16.90;6.30;;;;;;;24.38;64.47;97761.29;106780;1262;62563;-90
2023/06/09 08:46:56;;;;;;;16.70;7.50;;;;;;;24.40;64.43;97760.53;106211;1257;71448;-90
2023/06/09 08:49:23;;;;;;;15.40;6.30;;;;;;;24.41;64.46;97761.12;106512;1250;67633;-90
2023/06/09 08:51:53;;;;;;;19.00;6.10;;;;;;;24.41;64.53;97758.71;106345;1254;71108;-90
2023/06/09 08:54:23;;;;;;;17.30;7.80;;;;;;;24.41;64.51;97762.21;106755;1258;59700;-93
2023/06/09 08:56:56;;;;;;;18.50;6.10;;;;;;;24.41;64.46;97759.90;107475;1257;59553;-91
2023/06/09 08:59:34;;;;;;;32.60;7.90;;;;;;;24.40;64.50;97758.66;107395;1251;71549;-85
2023/06/09 09:02:07;;;;;;;26.20;7.50;;;;;;;24.40;64.52;97758.08;106912;1253;68100;-91
2023/06/09 09:04:38;;;;;;;13.60;6.50;;;;;;;24.41;64.56;97761.79;107211;1257;73466;-89
2023/06/09 09:07:08;;;;;;;14.60;6.50;;;;;;;24.41;64.62;97762.80;106201;1250;60873;-87
2023/06/09 09:09:38;;;;;;;14.10;5.60;;;;;;;24.39;64.51;97767.20;106480;1253;59609;-87
2023/06/09 09:12:24;;;;;;;;;;;;;;;;;;;;;
2023/06/09 09:14:59;;;;;;;18.90;5.90;;;;;;;24.38;64.43;97765.96;106732;1258;69064;-89
2023/06/09 09:17:27;;;;;;;9.50;5.40;;;;;;;24.36;64.48;97758.48;106263;1254;71041;-93
2023/06/09 09:19:55;;;;;;;12.30;5.60;;;;;;;24.35;64.45;97759.38;106775;1262;59746;-92
2023/06/09 09:22:25;;;;;;;15.80;5.70;;;;;;;24.35;64.51;97756.30;106801;1253;61413;-92
2023/06/09 09:24:52;;;;;;;11.10;5.20;;;;;;;24.34;64.43;97752.75;106505;1259;73553;-87
2023/06/09 09:27:21;;;;;;;12.70;5.50;;;;;;;24.32;64.42;97752.20;106758;1252;68920;-90
2023/06/09 09:30:06;;;;;;;10.90;5.80;;;;;;;24.34;64.43;97756.17;103306;1292;600185;-88
2023/06/09 09:32:35;;;;;;;12.70;5.40;;;;;;;24.32;64.30;97759.05;106127;1270;59200;-90
2023/06/09 09:42:03;;;;;;;12.60;5.60;;;;;;;24.32;64.27;97749.00;105169;1283;64837;-89
2023/06/09 09:44:47;;;;;;;18.70;7.10;;;;;;;24.32;64.24;97748.20;104566;1285;151370;-93
2023/06/09 09:47:17;;;;;;;15.20;6.40;;;;;;;24.33;64.16;97748.23;105142;1280;60586;-89
2023/06/09 09:49:55;;;;;;;20.50;6.50;;;;;;;24.34;64.30;97750.22;104216;1279;60032;-86
2023/06/09 09:52:26;;;;;;;26.50;7.40;;;;;;;24.34;64.40;97749.95;104159;1280;71215;-87
2023/06/09 09:54:55;;;;;;;22.00;7.70;;;;;;;24.33;64.47;97747.19;104658;1274;67607;-88
2023/06/09 09:57:24;;;;;;;13.90;7.00;;;;;;;24.33;64.48;97747.17;105105;1276;72556;-87
2023/06/09 09:59:52;;;;;;;20.10;6.90;;;;;;;24.33;64.76;97743.38;104851;1276;59396;-90
2023/06/09 10:02:24;;;;;;;20.60;7.10;;;;;;;24.34;64.82;97739.23;104952;1277;61805;-91
2023/06/09 10:04:53;;;;;;;22.40;7.00;;;;;;;24.33;64.96;97741.10;104995;1279;73038;-88
2023/06/09 10:07:26;;;;;;;16.80;6.80;;;;;;;24.33;64.91;97735.98;105161;1273;67833;-87
2023/06/09 10:10:15;;;;;;;11.70;6.60;;;;;;;24.34;65.03;97725.91;105299;1270;73189;-89
2023/06/09 10:12:49;;;;;;;11.10;6.10;;;;;;;24.33;65.09;97727.27;105104;1273;60894;-89
2023/06/09 10:15:21;;;;;;;16.00;6.40;;;;;;;24.33;65.01;97728.86;105665;1271;63082;-90
2023/06/09 10:18:01;;;;;;;15.70;6.60;;;;;;;24.34;65.05;97730.47;105518;1276;72049;-90
2023/06/09 10:20:32;;;;;;;11.90;6.00;;;;;;;24.34;64.89;97731.90;107848;1272;67453;-91
2023/06/09 10:23:04;;;;;;;13.80;5.60;;;;;;;24.34;64.78;97734.14;106834;1276;71476;-91
2023/06/09 10:25:38;;;;;;;8.80;5.10;;;;;;;24.34;64.64;97737.34;106230;1279;59681;-92
2023/06/09 10:28:09;;;;;;;12.80;6.80;;;;;;;24.35;64.61;97737.77;105517;1273;60043;-90
2023/06/09 10:30:41;;;;;;;10.50;5.80;;;;;;;24.36;64.36;97736.22;105708;1268;74134;-88
2023/06/09 10:40:27;;;;;;;11.50;5.60;;;;;;;24.41;63.70;97712.14;105113;1291;614217;-88
2023/06/09 10:43:40;;;;;;;10.10;4.90;;;;;;;24.41;63.71;97714.75;106108;1266;61077;-89
2023/06/09 10:46:12;;;;;;;11.10;5.00;;;;;;;24.43;63.69;97722.44;106579;1268;60334;-89
2023/06/09 10:48:49;;;;;;;12.30;6.10;;;;;;;24.43;63.60;97724.89;106088;1259;73714;-88
2023/06/09 10:51:45;;;;;;;11.20;5.90;;;;;;;24.45;63.51;97729.31;107008;1259;68810;-90
2023/06/09 10:54:25;;;;;;;11.50;5.00;;;;;;;24.45;63.35;97725.26;106805;1256;72817;-87
2023/06/09 10:57:25;;;;;;;11.20;4.70;;;;;;;24.46;63.41;97723.45;106725;1260;59486;-87
2023/06/09 10:59:54;;;;;;;11.10;5.80;;;;;;;24.46;63.13;97720.50;106073;1256;60067;-87
2023/06/09 11:02:23;;;;;;;12.30;5.20;;;;;;;24.46;62.82;97717.67;106304;1255;72395;-90
2023/06/09 11:04:55;;;;;;;16.10;5.60;;;;;;;24.45;62.47;97713.95;106503;1258;67301;-90
2023/06/09 11:07:26;;;;;;;20.10;6.00;;;;;;;24.44;62.24;97710.03;106566;1256;72696;-89
2023/06/09 11:09:55;;;;;;;13.40;5.50;;;;;;;24.43;62.27;97709.80;106366;1254;61704;-88
2023/06/09 11:12:26;;;;;;;12.50;5.70;;;;;;;24.42;61.99;97711.36;107194;1256;59678;-94
2023/06/09 11:15:02;;;;;;;11.90;5.50;;;;;;;24.41;61.90;97715.73;107576;1254;74347;-86
2023/06/09 11:17:43;;;;;;;15.50;5.70;;;;;;;24.41;61.73;97725.83;106610;1256;68920;-85
2023/06/09 11:20:15;;;;;;;16.90;5.50;;;;;;;24.40;61.69;97736.67;106075;1263;71260;-85
2023/06/09 11:22:45;;;;;;;8.90;5.60;;;;;;;24.40;61.72;97745.70;106032;1260;59630;-85
2023/06/09 11:25:23;;;;;;;16.40;5.40;;;;;;;24.40;61.79;97749.60;106160;1257;60165;-86
2023/06/09 11:28:05;;;;;;;12.80;5.50;;;;;;;24.39;61.69;97757.57;106194;1262;72122;-86
2023/06/09 11:30:33;;;;;;;12.10;5.40;;;;;;;24.38;61.51;97766.64;106197;1259;68586;-87
2023/06/09 11:33:04;;;;;;;10.20;5.50;;;;;;;24.37;61.45;97768.09;106030;1261;72652;-88
2023/06/09 11:35:39;;;;;;;15.50;5.90;;;;;;;24.37;61.30;97770.15;106470;1256;59778;-89
2023/06/09 11:38:08;;;;;;;15.20;5.70;;;;;;;24.34;61.15;97767.91;106282;1257;60337;-85
2023/06/09 11:40:51;;;;;;;6.00;4.60;;;;;;;24.33;60.96;97765.46;106511;1256;73759;-88
2023/06/09 11:43:22;;;;;;;9.60;5.10;;;;;;;24.32;61.04;97766.35;106223;1256;68726;-86
2023/06/09 11:46:03;;;;;;;10.70;5.80;;;;;;;24.31;61.23;97763.73;106473;1260;71449;-84
2023/06/09 11:48:35;;;;;;;9.60;5.30;;;;;;;24.31;61.41;97759.00;106092;1255;60261;-84
2023/06/09 11:51:03;;;;;;;17.70;5.70;;;;;;;24.32;61.59;97755.07;105959;1255;59622;-86
2023/06/09 11:53:32;;;;;;;11.10;6.10;;;;;;;24.31;61.69;97757.35;106623;1256;71885;-84
2023/06/09 11:56:01;;;;;;;7.40;4.40;;;;;;;24.31;61.53;97754.61;109097;1255;67369;-86
2023/06/09 11:58:29;;;;;;;6.90;4.90;;;;;;;24.29;61.44;97755.04;108839;1253;72713;-88
2023/06/09 12:00:58;;;;;;;8.10;4.80;;;;;;;24.29;61.60;97749.80;106748;1253;59797;-86
2023/06/09 12:03:33;;;;;;;10.30;5.00;;;;;;;24.28;61.74;97751.31;106560;1254;60249;-85
2023/06/09 12:06:02;;;;;;;13.80;5.20;;;;;;;24.29;61.91;97747.60;106342;1258;73131;-84
2023/06/09 12:08:29;;;;;;;6.20;5.20;;;;;;;24.28;62.02;97748.27;106372;1254;68831;-84
2023/06/09 12:11:01;;;;;;;7.00;5.00;;;;;;;24.27;62.13;97744.73;106250;1256;71956;-87
2023/06/09 12:13:28;;;;;;;10.10;5.60;;;;;;;24.27;62.69;97741.02;106133;1253;60406;-83
2023/06/09 12:15:58;;;;;;;12.90;5.20;;;;;;;24.29;62.86;97739.40;106358;1253;60910;-83
2023/06/09 12:18:33;;;;;;;12.00;4.60;;;;;;;24.29;63.05;97746.54;106247;1253;71929;-84
2023/06/09 12:21:02;;;;;;;17.00;5.50;;;;;;;24.29;63.21;97751.20;106247;1253;67686;-83
2023/06/09 12:23:29;;;;;;;7.70;5.00;;;;;;;24.29;63.66;97756.85;106243;1256;71236;-83
2023/06/09 12:26:16;;;;;;;5.90;4.00;;;;;;;24.29;63.71;97759.47;106485;1253;62056;-86
2023/06/09 12:28:57;;;;;;;6.80;5.40;;;;;;;24.28;64.16;97760.46;107138;1258;58961;-87
2023/06/09 12:31:25;;;;;;;10.60;6.00;;;;;;;24.27;64.33;97761.31;107101;1253;71879;-86
2023/06/09 12:33:56;;;;;;;8.20;6.30;;;;;;;24.27;64.42;97767.95;107209;1253;67342;-84
2023/06/09 12:36:39;;;;;;;6.90;5.80;;;;;;;24.27;64.35;97769.92;106981;1253;72245;-87
2023/06/09 12:39:37;;;;;;;11.70;4.80;;;;;;;24.27;64.28;97770.60;106515;1255;60411;-85
2023/06/09 12:42:12;;;;;;;5.90;4.80;;;;;;;24.25;64.26;97774.45;106395;1253;60161;-87
2023/06/09 12:44:47;;;;;;;8.10;4.70;;;;;;;24.24;64.42;97779.97;107261;1253;71838;-83
2023/06/09 12:47:16;;;;;;;10.60;4.80;;;;;;;24.24;64.40;97783.98;107148;1253;68738;-89
2023/06/09 12:49:46;;;;;;;18.40;6.60;;;;;;;24.25;64.58;97782.68;106978;1254;72911;-86
2023/06/09 12:52:16;;;;;;;15.30;5.40;;;;;;;24.26;64.58;97785.59;107150;1261;59724;-80
2023/06/09 12:54:52;;;;;;;;;;;;;;;24.28;64.66;97789.01;107763;1254;61109;-83
2023/06/09 12:57:49;;;;;;;10.80;4.50;;;;;;;24.28;64.73;97793.60;109373;1253;72727;-83
2023/06/09 13:00:21;;;;;;;7.70;5.10;;;;;;;24.29;64.85;97796.03;107799;1253;67634;-79
2023/06/09 13:03:17;;;;;;;11.80;5.30;;;;;;;24.31;64.76;97795.98;107063;1258;72670;-79
2023/06/09 13:05:47;;;;;;;9.70;4.50;;;;;;;24.32;64.82;97792.40;106264;1252;60105;-78
2023/06/09 13:08:18;;;;;;;14.80;5.60;;;;;;;24.32;64.86;97787.95;106162;1253;59704;-78
2023/06/09 13:11:12;;;;;;;7.30;5.20;;;;;;;24.32;64.82;97775.35;107241;1253;72454;-80
2023/06/09 13:13:44;;;;;;;10.60;5.10;;;;;;;24.32;64.78;97778.80;106758;1257;69515;-80
2023/06/09 13:16:13;;;;;;;8.70;4.60;;;;;;;24.32;64.75;97784.33;107052;1253;71001;-82
2023/06/09 13:18:41;;;;;;;9.80;5.60;;;;;;;24.31;64.68;97793.34;106834;1253;61884;-79
2023/06/09 13:21:11;;;;;;;11.30;5.50;;;;;;;24.32;64.74;97796.06;107253;1253;60186;-87
2023/06/09 13:23:39;;;;;;;11.30;5.40;;;;;;;24.31;64.60;97796.90;107182;1253;72158;-84
2023/06/09 13:26:19;;;;;;;7.20;5.10;;;;;;;24.30;64.60;97789.74;106851;1253;70185;-79
2023/06/09 13:28:49;;;;;;;8.50;4.80;;;;;;;24.29;64.50;97783.18;106667;1256;73534;-83
2023/06/09 13:31:17;;;;;;;7.30;4.70;;;;;;;24.29;64.42;97778.28;106741;1259;59727;-81
2023/06/09 13:33:44;;;;;;;6.60;5.00;;;;;;;24.28;64.30;97780.27;106927;1253;60338;-80
2023/06/09 13:36:12;;;;;;;10.30;5.50;;;;;;;24.27;64.34;97775.98;106647;1259;74429;-79
2023/06/09 13:38:40;;;;;;;9.30;5.10;;;;;;;24.27;64.24;97777.31;106254;1254;67918;-78
2023/06/09 13:41:07;;;;;;;7.40;4.50;;;;;;;24.26;64.34;97781.66;106529;1254;72100;-78
2023/06/09 13:43:35;;;;;;;8.20;4.60;;;;;;;24.25;64.31;97776.44;106320;1254;59861;-80
2023/06/09 13:46:03;;;;;;;7.10;4.90;;;;;;;24.24;64.31;97776.81;106661;1253;60809;-82
2023/06/09 13:48:31;;;;;;;7.10;4.20;;;;;;;24.22;64.25;97769.33;106641;1259;74825;-84
2023/06/09 13:50:59;;;;;;;11.10;4.80;;;;;;;24.21;64.23;97772.74;106906;1253;68151;-79
2023/06/09 13:53:27;;;;;;;9.70;5.40;;;;;;;24.20;64.18;97765.23;106706;1254;73369;-77
2023/06/09 13:55:55;;;;;;;15.60;5.60;;;;;;;24.20;64.21;97761.77;106286;1255;59735;-81
2023/06/09 13:58:22;;;;;;;10.70;6.20;;;;;;;24.18;64.16;97760.12;105783;1253;59831;-76
2023/06/09 14:00:50;;;;;;;10.20;4.60;;;;;;;24.18;64.26;97768.77;106473;1253;72922;-80
2023/06/09 14:03:17;;;;;;;11.80;5.50;;;;;;;24.16;64.15;97769.88;106505;1259;68952;-79
2023/06/09 14:05:47;;;;;;;16.70;5.20;;;;;;;24.16;64.22;97774.19;106451;1253;73392;-79
2023/06/09 14:08:15;;;;;;;11.00;5.00;;;;;;;24.15;64.26;97782.16;106191;1251;60444;-79
2023/06/09 14:10:43;;;;;;;9.40;5.20;;;;;;;24.14;64.14;97781.02;106483;1251;60416;-86
2023/06/09 14:13:11;;;;;;;12.30;5.20;;;;;;;24.14;64.22;97786.17;106644;1260;72062;-80
2023/06/09 14:15:39;;;;;;;11.90;5.00;;;;;;;24.13;64.12;97789.58;106350;1253;69748;-80
2023/06/09 14:18:08;;;;;;;10.20;5.40;;;;;;;24.12;64.22;97790.23;106616;1253;71254;-80
2023/06/09 14:20:37;;;;;;;10.70;5.50;;;;;;;24.12;64.25;97792.29;106713;1253;60185;-79
2023/06/09 14:23:08;;;;;;;12.70;4.90;;;;;;;24.11;64.24;97790.71;106433;1253;60290;-82
2023/06/09 14:25:36;;;;;;;12.10;5.20;;;;;;;24.11;64.19;97792.45;106599;1256;73678;-80
2023/06/09 14:28:03;;;;;;;14.90;6.20;;;;;;;24.10;64.21;97790.16;106548;1255;69478;-81
2023/06/09 14:30:31;;;;;;;10.50;5.30;;;;;;;24.09;64.07;97790.73;107031;1254;72222;-80
2023/06/09 14:32:59;;;;;;;12.20;5.60;;;;;;;24.08;64.24;97788.05;107872;1253;60485;-78
2023/06/09 14:35:28;;;;;;;11.40;4.70;;;;;;;24.08;64.25;97789.31;107460;1253;60516;-86
2023/06/09 14:38:02;;;;;;;11.20;5.20;;;;;;;24.08;64.22;97791.55;108237;1253;74620;-91
2023/06/09 14:40:34;;;;;;;10.20;5.00;;;;;;;24.08;64.25;97786.48;106878;1253;68348;-87
2023/06/09 14:43:09;;;;;;;12.90;5.80;;;;;;;24.08;64.23;97788.77;106536;1253;70833;-83
2023/06/09 14:45:37;;;;;;;21.80;6.50;;;;;;;24.08;64.18;97785.55;106426;1253;60214;-80
2023/06/09 14:48:07;;;;;;;11.30;5.20;;;;;;;24.07;64.08;97780.10;106786;1253;61084;-80
2023/06/09 14:50:39;;;;;;;11.40;4.90;;;;;;;24.07;64.11;97776.81;106669;1253;73610;-80
2023/06/09 14:53:10;;;;;;;13.40;5.70;;;;;;;24.07;64.10;97776.36;106304;1258;68809;-79
2023/06/09 14:55:40;;;;;;;9.70;5.50;;;;;;;24.06;64.05;97771.88;106945;1256;73391;-81
2023/06/09 14:58:08;;;;;;;9.80;4.50;;;;;;;24.06;64.12;97769.19;106479;1253;60493;-79
2023/06/09 15:00:41;;;;;;;12.70;5.00;;;;;;;24.05;64.04;97765.09;106570;1258;60516;-81
2023/06/09 15:03:10;;;;;;;6.50;4.40;;;;;;;24.05;64.03;97759.27;106410;1257;74035;-79
2023/06/09 15:05:38;;;;;;;7.80;5.00;;;;;;;24.04;63.96;97754.23;105983;1253;68420;-81
2023/06/09 15:08:07;;;;;;;11.70;5.30;;;;;;;24.04;63.89;97752.59;107155;1253;71391;-80
2023/06/09 15:10:44;;;;;;;6.60;4.40;;;;;;;24.04;63.98;97745.89;107419;1256;61651;-82
2023/06/09 15:13:13;;;;;;;11.60;5.20;;;;;;;24.03;63.83;97744.54;106599;1258;60496;-81
2023/06/09 15:15:45;;;;;;;8.50;5.00;;;;;;;24.03;63.93;97747.83;106632;1257;74174;-79
2023/06/09 15:18:13;;;;;;;7.40;4.60;;;;;;;24.02;64.01;97743.90;106367;1259;67848;-80
2023/06/09 15:20:42;;;;;;;9.60;4.50;;;;;;;24.02;63.94;97739.13;106360;1259;72106;-80
2023/06/09 15:23:10;;;;;;;7.90;4.30;;;;;;;24.02;63.85;97730.95;106292;1258;60487;-79
2023/06/09 15:25:39;;;;;;;15.70;5.40;;;;;;;24.02;63.99;97724.78;106676;1253;61844;-80
2023/06/09 15:28:09;;;;;;;8.40;4.50;;;;;;;24.01;63.82;97726.47;108747;1254;73441;-80
2023/06/09 15:30:39;;;;;;;6.50;4.00;;;;;;;24.01;63.85;97725.38;109277;1256;67481;-79
2023/06/09 15:33:08;;;;;;;8.00;4.60;;;;;;;24.01;63.90;97725.75;108702;1256;72247;-80
2023/06/09 15:35:37;;;;;;;9.60;5.20;;;;;;;24.02;63.87;97724.95;107216;1253;60561;-80
2023/06/09 15:38:05;;;;;;;10.00;4.50;;;;;;;24.02;63.89;97718.45;106956;1253;60641;-80
2023/06/09 15:40:38;;;;;;;9.50;5.30;;;;;;;24.02;63.78;97715.72;106970;1253;74033;-79
2023/06/09 15:43:06;;;;;;;10.00;5.10;;;;;;;24.03;63.73;97715.50;107336;1253;68724;-79
2023/06/09 15:45:38;;;;;;;7.80;5.00;;;;;;;24.02;63.62;97713.86;106611;1259;71891;-80
2023/06/09 15:48:06;;;;;;;9.00;4.90;;;;;;;24.03;63.58;97707.23;106552;1259;60964;-81
2023/06/09 15:50:35;;;;;;;6.90;5.00;;;;;;;24.03;63.64;97712.16;106288;1259;62248;-78
2023/06/09 15:53:03;;;;;;;13.90;5.10;;;;;;;24.03;63.60;97705.80;106690;1256;74477;-81
2023/06/09 15:55:32;;;;;;;6.60;4.90;;;;;;;24.02;63.57;97698.91;106038;1261;69328;-80
2023/06/09 15:58:00;;;;;;;10.80;5.20;;;;;;;24.02;63.55;97697.23;105993;1256;71649;-80
2023/06/09 16:00:28;;;;;;;14.90;5.80;;;;;;;24.01;63.60;97691.31;106199;1257;60439;-79
2023/06/09 16:02:57;;;;;;;13.60;4.40;;;;;;;24.00;63.58;97687.44;106307;1254;60780;-77
2023/06/09 16:05:25;;;;;;;6.30;4.40;;;;;;;24.00;63.49;97682.38;106053;1260;72740;-79
2023/06/09 16:07:52;;;;;;;10.30;4.50;;;;;;;24.00;63.48;97681.27;106195;1258;67577;-80
2023/06/09 16:10:19;;;;;;;7.90;4.50;;;;;;;23.99;63.41;97678.33;106351;1258;72820;-81
2023/06/09 16:12:47;;;;;;;7.80;4.40;;;;;;;23.98;63.48;97674.35;106190;1256;60550;-79
2023/06/09 16:15:15;;;;;;;6.20;4.90;;;;;;;23.98;63.42;97671.31;106348;1255;60622;-79
2023/06/09 16:17:42;;;;;;;10.40;4.30;;;;;;;23.97;63.50;97668.83;106242;1253;73419;-80
2023/06/09 16:20:10;;;;;;;6.80;4.00;;;;;;;23.97;63.47;97665.29;106587;1253;67947;-81
2023/06/09 16:22:38;;;;;;;4.90;4.10;;;;;;;23.96;63.52;97667.19;105980;1260;73158;-78
2023/06/09 16:25:05;;;;;;;8.20;4.50;;;;;;;23.95;63.55;97665.62;106216;1260;60350;-79
2023/06/09 16:27:34;;;;;;;6.90;4.10;;;;;;;23.95;63.63;97664.05;106107;1256;60539;-78
2023/06/09 16:30:01;;;;;;;7.00;4.20;;;;;;;23.94;63.60;97671.32;106156;1259;74007;-78
2023/06/09 16:32:30;;;;;;;5.90;4.20;;;;;;;23.94;63.51;97667.32;105842;1257;68868;-78
2023/06/09 16:34:58;;;;;;;4.60;4.00;;;;;;;23.93;63.54;97664.27;105851;1259;72595;-76
2023/06/09 16:37:25;;;;;;;7.70;4.10;;;;;;;23.92;63.43;97666.77;105858;1259;60582;-78
2023/06/09 16:39:53;;;;;;;5.90;3.80;;;;;;;23.92;63.45;97660.06;105946;1261;61438;-77
2023/06/09 16:42:20;;;;;;;9.60;4.00;;;;;;;23.92;63.51;97658.88;106313;1257;73542;-78
2023/06/09 16:44:47;;;;;;;5.90;3.90;;;;;;;23.91;63.56;97654.02;106064;1256;66878;-79
2023/06/09 16:47:15;;;;;;;5.70;3.80;;;;;;;23.90;63.54;97656.46;105803;1263;73397;-78
2023/06/09 16:49:42;;;;;;;5.10;4.00;;;;;;;23.89;63.58;97652.46;105926;1260;60402;-79
2023/06/09 16:52:09;;;;;;;5.20;4.10;;;;;;;23.89;63.53;97649.89;105896;1259;60437;-79
2023/06/09 16:54:37;;;;;;;6.90;4.10;;;;;;;23.89;63.49;97647.36;105978;1259;72303;-78
2023/06/09 16:57:05;;;;;;;6.00;4.00;;;;;;;23.88;63.58;97644.70;105745;1261;69403;-78
2023/06/09 16:59:33;;;;;;;5.80;3.90;;;;;;;23.87;63.58;97645.37;105738;1256;73182;-79
2023/06/09 17:02:01;;;;;;;5.00;4.00;;;;;;;23.87;63.55;97648.52;105703;1255;60591;-78
2023/06/09 17:04:29;;;;;;;7.00;4.10;;;;;;;23.87;63.62;97647.23;106094;1253;61000;-79
2023/06/09 17:06:56;;;;;;;5.90;3.60;;;;;;;23.86;63.65;97646.92;105797;1260;75517;-78
2023/06/09 17:09:24;;;;;;;6.90;3.90;;;;;;;23.86;63.63;97646.80;106042;1254;68100;-78
2023/06/09 17:11:51;;;;;;;6.80;4.00;;;;;;;23.86;63.65;97653.42;105903;1265;72670;-79
2023/06/09 17:14:19;;;;;;;6.70;3.30;;;;;;;23.86;63.57;97654.94;105930;1253;60796;-79
2023/06/09 17:16:47;;;;;;;7.10;3.80;;;;;;;23.86;63.65;97662.59;106023;1258;60418;-78
2023/06/09 17:19:14;;;;;;;9.20;4.50;;;;;;;23.85;63.69;97665.11;106117;1258;74308;-79
2023/06/09 17:21:42;;;;;;;8.90;4.40;;;;;;;23.85;63.63;97669.46;105996;1260;67818;-78
2023/06/09 17:24:09;;;;;;;5.70;3.90;;;;;;;23.85;63.64;97677.38;106010;1254;74061;-78
2023/06/09 17:26:37;;;;;;;6.00;3.60;;;;;;;23.85;63.60;97683.42;105802;1261;60550;-78
2023/06/09 17:29:05;;;;;;;5.70;3.50;;;;;;;23.84;63.61;97680.71;105611;1254;60550;-78
2023/06/09 17:31:33;;;;;;;6.60;4.20;;;;;;;23.84;63.62;97683.31;106034;1260;74596;-77
2023/06/09 17:34:00;;;;;;;12.50;3.90;;;;;;;23.84;63.67;97686.48;106120;1254;68796;-78
2023/06/09 17:36:28;;;;;;;5.60;3.60;;;;;;;23.83;63.68;97688.11;105959;1254;72559;-79
2023/06/09 17:38:56;;;;;;;5.50;3.40;;;;;;;23.83;63.59;97692.36;105799;1254;60467;-78
2023/06/09 17:41:23;;;;;;;5.30;4.10;;;;;;;23.83;63.68;97701.90;105997;1254;60850;-78
2023/06/09 17:43:52;;;;;;;6.80;3.90;;;;;;;23.82;63.58;97704.30;106030;1260;73915;-78
2023/06/09 17:46:20;;;;;;;5.30;4.10;;;;;;;23.82;63.69;97703.21;106143;1254;68991;-77
2023/06/09 17:48:47;;;;;;;6.00;4.20;;;;;;;23.82;63.71;97708.40;106043;1257;73127;-77
2023/06/09 17:51:15;;;;;;;3.80;3.00;;;;;;;23.82;63.71;97705.44;105933;1260;60422;-78
2023/06/09 17:53:44;;;;;;;4.20;3.30;;;;;;;23.81;63.57;97701.85;105787;1263;61059;-77
2023/06/09 17:56:12;;;;;;;7.80;4.00;;;;;;;23.81;63.67;97701.34;105789;1261;74691;-79
2023/06/09 17:58:40;;;;;;;6.20;3.90;;;;;;;23.81;63.63;97708.98;105900;1261;68210;-77
2023/06/09 18:01:07;;;;;;;10.30;3.50;;;;;;;23.80;63.60;97707.07;106196;1257;73045;-77
2023/06/09 18:03:35;;;;;;;6.60;3.80;;;;;;;23.81;63.63;97708.13;105971;1258;61115;-78
2023/06/09 18:06:04;;;;;;;4.90;3.50;;;;;;;23.80;63.62;97703.49;106572;1259;60962;-77
2023/06/09 18:08:31;;;;;;;3.80;3.10;;;;;;;23.79;63.62;97705.61;108083;1259;72757;-77
2023/06/09 18:10:59;;;;;;;4.70;3.20;;;;;;;23.80;63.59;97707.87;108512;1259;67666;-77
2023/06/09 18:13:26;;;;;;;4.50;3.10;;;;;;;23.80;63.54;97708.26;106398;1255;71975;-78
2023/06/09 18:15:54;;;;;;;5.00;3.10;;;;;;;23.81;63.59;97708.14;106060;1253;61040;-78
2023/06/09 18:18:22;;;;;;;4.00;3.50;;;;;;;23.81;63.57;97709.23;106027;1259;60533;-79
2023/06/09 18:20:49;;;;;;;4.20;3.40;;;;;;;23.81;63.55;97708.09;106133;1256;74626;-77
2023/06/09 18:23:18;;;;;;;3.30;2.70;;;;;;;23.81;63.42;97705.70;105850;1255;68733;-79
2023/06/09 18:25:46;;;;;;;5.10;4.00;;;;;;;23.82;63.40;97711.30;105716;1259;71665;-80
2023/06/09 18:28:13;;;;;;;4.40;3.30;;;;;;;23.81;63.43;97716.33;105897;1255;60544;-78
2023/06/09 18:30:43;;;;;;;4.00;3.40;;;;;;;23.81;63.47;97719.95;105796;1254;60547;-80
2023/06/09 18:33:10;;;;;;;6.10;3.30;;;;;;;23.81;63.48;97723.80;105887;1261;71793;-77
2023/06/09 18:35:37;;;;;;;4.80;3.60;;;;;;;23.80;63.44;97725.89;106003;1259;69582;-79
2023/06/09 18:38:05;;;;;;;3.20;2.90;;;;;;;23.80;63.52;97732.69;105829;1254;73433;-79
2023/06/09 18:40:33;;;;;;;4.20;3.80;;;;;;;23.80;63.44;97734.34;105778;1254;62109;-79
2023/06/09 18:43:00;;;;;;;5.20;3.40;;;;;;;23.80;63.45;97733.66;106300;1257;60445;-78
2023/06/09 18:45:27;;;;;;;3.50;3.20;;;;;;;23.79;63.41;97731.55;106227;1257;74474;-78
2023/06/09 18:47:55;;;;;;;3.50;3.10;;;;;;;23.79;63.42;97732.69;106331;1254;67582;-78
2023/06/09 18:50:23;;;;;;;4.50;3.40;;;;;;;23.79;63.44;97734.02;106316;1254;73870;-78
2023/06/09 18:52:51;;;;;;;4.00;3.10;;;;;;;23.78;63.41;97739.89;105975;1255;60489;-79
2023/06/09 18:55:18;;;;;;;5.80;3.30;;;;;;;23.78;63.42;97741.97;106218;1261;60466;-78
2023/06/09 18:57:46;;;;;;;4.90;3.40;;;;;;;23.78;63.47;97740.48;106343;1254;74117;-78
2023/06/09 19:00:14;;;;;;;3.50;3.10;;;;;;;23.78;63.43;97743.65;105811;1255;68843;-79
2023/06/09 19:02:41;;;;;;;3.90;2.80;;;;;;;23.78;63.39;97742.17;107657;1254;72490;-79
2023/06/09 19:05:10;;;;;;;3.40;2.90;;;;;;;23.77;63.46;97749.17;108845;1254;60348;-78
2023/06/09 19:07:41;;;;;;;5.60;3.20;;;;;;;23.78;63.41;97753.31;107223;1254;60535;-80
2023/06/09 19:10:09;;;;;;;4.60;3.10;;;;;;;23.79;63.39;97753.02;106133;1253;73947;-78
2023/06/09 19:12:37;;;;;;;4.00;2.90;;;;;;;23.79;63.30;97756.09;105905;1259;68631;-78
2023/06/09 19:15:06;;;;;;;5.60;3.00;;;;;;;23.79;63.29;97761.33;106037;1253;72848;-78
2023/06/09 19:17:35;;;;;;;4.30;3.30;;;;;;;23.79;63.24;97764.07;106109;1259;60438;-78
2023/06/09 19:20:03;;;;;;;6.50;3.30;;;;;;;23.79;63.30;97763.19;105979;1253;60445;-78
2023/06/09 19:22:31;;;;;;;4.60;3.20;;;;;;;23.79;63.28;97764.79;105828;1259;74395;-78
2023/06/09 19:24:59;;;;;;;4.10;2.90;;;;;;;23.79;63.22;97763.23;105921;1254;68888;-77
2023/06/09 19:27:26;;;;;;;3.20;2.90;;;;;;;23.79;63.16;97771.66;105704;1254;73442;-77
2023/06/09 19:29:53;;;;;;;3.10;2.80;;;;;;;23.78;63.20;97775.58;105696;1254;60438;-78
2023/06/09 19:32:20;;;;;;;3.30;2.40;;;;;;;23.78;63.26;97775.95;105659;1259;61756;-78
2023/06/09 19:34:48;;;;;;;3.40;3.10;;;;;;;23.77;63.16;97775.88;105790;1260;74253;-78
2023/06/09 19:37:16;;;;;;;2.60;2.40;;;;;;;23.77;63.18;97773.02;105737;1254;69359;-78
2023/06/09 19:39:43;;;;;;;3.90;3.10;;;;;;;23.76;63.29;97774.02;105891;1253;72728;-78
2023/06/09 19:42:10;;;;;;;3.00;2.70;;;;;;;23.76;63.25;97772.99;105880;1253;61113;-78
2023/06/09 19:44:38;;;;;;;2.90;2.60;;;;;;;23.75;63.21;97774.48;105633;1254;60458;-78
2023/06/09 19:47:05;;;;;;;3.30;2.60;;;;;;;23.75;63.27;97774.35;105768;1259;74601;-77
2023/06/09 19:49:33;;;;;;;2.70;2.10;;;;;;;23.74;63.18;97769.71;105571;1254;69422;-78
2023/06/09 19:52:02;;;;;;;3.40;2.50;;;;;;;23.74;63.30;97770.89;106068;1255;72212;-78
2023/06/09 19:54:30;;;;;;;3.50;2.90;;;;;;;23.73;63.27;97771.14;105862;1259;60566;-77
2023/06/09 19:56:57;;;;;;;3.60;2.80;;;;;;;23.73;63.20;97766.58;105662;1254;60725;-77
2023/06/09 19:59:25;;;;;;;3.40;2.40;;;;;;;23.73;63.14;97764.39;105960;1260;72855;-78
2023/06/09 20:01:52;;;;;;;3.10;2.70;;;;;;;23.72;63.18;97755.19;105979;1255;68849;-78
2023/06/09 20:04:20;;;;;;;3.40;2.60;;;;;;;23.72;63.19;97753.42;105741;1259;72698;-78
2023/06/09 20:06:47;;;;;;;3.80;2.80;;;;;;;23.72;63.21;97750.89;105929;1254;60383;-78
2023/06/09 20:09:15;;;;;;;2.50;2.10;;;;;;;23.71;63.33;97749.16;105819;1254;59862;-78
2023/06/09 20:11:42;;;;;;;2.90;2.60;;;;;;;23.70;63.21;97749.02;105637;1260;74664;-77
2023/06/09 20:14:10;;;;;;;3.90;2.90;;;;;;;23.71;63.21;97747.33;106023;1254;67781;-78
2023/06/09 20:16:38;;;;;;;2.70;2.50;;;;;;;23.70;63.13;97747.43;105878;1254;74413;-79
2023/06/09 20:19:06;;;;;;;3.20;2.30;;;;;;;23.70;63.13;97745.40;109514;1254;59303;-77